createdAt,value
2018-11-05T00:00:54.165Z,20.47
2018-11-05T00:03:24.422Z,20.10
2018-11-05T00:05:54.829Z,19.70
2018-11-05T00:08:25.167Z,22.80
2018-11-05T00:10:55.481Z,20.17
2018-11-05T00:13:25.810Z,21.30
2018-11-05T00:15:56.208Z,23.87
2018-11-05T00:18:26.509Z,21.03
2018-11-05T00:20:56.920Z,19.63
2018-11-05T00:23:27.253Z,20.27
2018-11-05T00:25:57.735Z,22.00
2018-11-05T00:28:28.013Z,22.57
2018-11-05T00:30:58.435Z,22.07
2018-11-05T00:33:28.778Z,25.33
2018-11-05T00:35:59.130Z,22.47
2018-11-05T00:38:29.485Z,26.87
2018-11-05T00:40:59.891Z,27.30
2018-11-05T00:43:30.246Z,26.57
2018-11-05T00:46:00.527Z,26.23
2018-11-05T00:48:30.724Z,23.70
2018-11-05T00:51:01.052Z,30.03
2018-11-05T00:53:31.374Z,27.07
2018-11-05T00:56:01.726Z,27.83
2018-11-05T00:58:31.988Z,25.50
2018-11-05T01:01:02.637Z,27.90
2018-11-05T01:03:33.014Z,28.80
2018-11-05T01:06:03.366Z,26.50
2018-11-05T01:08:33.677Z,30.77
2018-11-05T01:11:04.000Z,28.07
2018-11-05T01:13:34.321Z,29.83
2018-11-05T01:16:04.787Z,28.93
2018-11-05T01:18:35.102Z,31.57
2018-11-05T01:21:05.995Z,32.27
2018-11-05T01:23:36.329Z,29.23
2018-11-05T01:26:06.668Z,32.97
2018-11-05T01:28:37.020Z,32.17
2018-11-05T01:31:07.451Z,31.70
2018-11-05T01:33:37.808Z,32.77
2018-11-05T01:36:08.189Z,30.70
2018-11-05T01:38:38.492Z,32.67
2018-11-05T01:41:08.811Z,31.23
2018-11-05T01:43:39.083Z,32.80
2018-11-05T01:46:09.522Z,30.27
2018-11-05T01:48:39.871Z,33.67
2018-11-05T01:51:10.247Z,35.13
2018-11-05T01:53:40.595Z,32.50
2018-11-05T01:56:10.988Z,33.93
2018-11-05T01:58:41.401Z,31.83
2018-11-05T02:01:11.807Z,35.07
2018-11-05T02:03:42.225Z,33.77
2018-11-05T02:06:12.459Z,30.73
2018-11-05T02:08:42.727Z,34.77
2018-11-05T02:11:13.100Z,31.73
2018-11-05T02:13:43.405Z,34.40
2018-11-05T02:16:13.732Z,32.70
2018-11-05T02:18:44.001Z,35.27
2018-11-05T02:21:14.335Z,34.27
2018-11-05T02:23:44.717Z,33.80
2018-11-05T02:26:15.064Z,34.73
2018-11-05T02:28:45.273Z,36.20
2018-11-05T02:31:15.506Z,36.87
2018-11-05T02:33:45.787Z,34.30
2018-11-05T02:36:16.107Z,37.37
2018-11-05T02:38:46.402Z,34.53
2018-11-05T02:41:16.700Z,32.90
2018-11-05T02:43:47.014Z,32.40
2018-11-05T02:46:19.344Z,34.70
2018-11-05T02:48:49.614Z,34.20
2018-11-05T02:51:19.990Z,33.50
2018-11-05T02:53:50.306Z,33.70
2018-11-05T02:56:20.684Z,33.27
2018-11-05T02:58:50.945Z,33.47
2018-11-05T03:01:21.261Z,34.43
2018-11-05T03:03:51.559Z,34.83
2018-11-05T03:06:21.889Z,29.97
2018-11-05T03:08:52.246Z,35.87
2018-11-05T03:11:22.571Z,34.27
2018-11-05T03:13:52.905Z,33.73
2018-11-05T03:16:23.175Z,36.83
2018-11-05T03:18:53.475Z,33.83
2018-11-05T03:21:23.777Z,33.50
2018-11-05T03:23:54.169Z,37.83
2018-11-05T03:26:24.474Z,40.47
2018-11-05T03:28:54.834Z,36.30
2018-11-05T03:31:25.109Z,36.13
2018-11-05T03:33:55.307Z,38.07
2018-11-05T03:36:25.902Z,36.43
2018-11-05T03:38:56.187Z,41.43
2018-11-05T03:41:26.503Z,41.23
2018-11-05T03:43:56.799Z,42.30
2018-11-05T03:46:27.182Z,40.27
2018-11-05T03:48:57.674Z,39.10
2018-11-05T03:51:27.947Z,40.30
2018-11-05T03:53:58.256Z,40.30
2018-11-05T03:56:28.601Z,39.20
2018-11-05T03:58:58.874Z,48.47
2018-11-05T04:01:29.167Z,42.73
2018-11-05T04:03:59.497Z,41.13
2018-11-05T04:06:32.231Z,43.77
2018-11-05T04:09:03.029Z,47.43
2018-11-05T04:11:33.466Z,48.93
2018-11-05T04:14:03.934Z,54.63
2018-11-05T04:16:34.485Z,52.87
2018-11-05T04:19:04.938Z,49.67
2018-11-05T04:21:40.496Z,48.53
2018-11-05T04:24:11.699Z,48.03
2018-11-05T04:26:43.187Z,55.87
2018-11-05T04:29:14.939Z,56.77
2018-11-05T04:31:45.382Z,50.80
2018-11-05T04:34:15.637Z,52.40
2018-11-05T04:36:45.993Z,51.37
2018-11-05T04:39:16.751Z,49.53
2018-11-05T04:41:47.067Z,60.63
2018-11-05T04:44:17.358Z,52.33
2018-11-05T04:46:47.677Z,49.97
2018-11-05T04:49:18.039Z,50.37
2018-11-05T04:51:48.374Z,62.87
2018-11-05T04:54:18.672Z,61.13
2018-11-05T04:56:48.931Z,57.23
2018-11-05T04:59:19.192Z,67.07
2018-11-05T05:01:49.590Z,56.83
2018-11-05T05:04:19.942Z,57.87
2018-11-05T05:06:50.256Z,53.17
2018-11-05T05:09:20.605Z,58.17
2018-11-05T05:11:50.916Z,54.97
2018-11-05T05:14:22.102Z,61.00
2018-11-05T05:16:52.371Z,57.17
2018-11-05T05:19:22.592Z,58.53
2018-11-05T05:21:52.944Z,65.90
2018-11-05T05:24:23.258Z,61.53
2018-11-05T05:26:53.614Z,71.00
2018-11-05T05:29:23.874Z,66.23
2018-11-05T05:31:54.172Z,57.67
2018-11-05T05:34:24.472Z,66.53
2018-11-05T05:36:56.380Z,59.80
2018-11-05T05:39:26.674Z,77.63
2018-11-05T05:41:56.954Z,80.20
2018-11-05T05:44:27.191Z,89.37
2018-11-05T05:46:57.466Z,62.07
2018-11-05T05:49:27.695Z,56.00
2018-11-05T05:51:58.017Z,61.40
2018-11-05T05:54:28.195Z,58.73
2018-11-05T05:56:58.473Z,56.40
2018-11-05T05:59:28.759Z,55.97
2018-11-05T06:01:59.053Z,59.40
2018-11-05T06:04:29.307Z,58.80
2018-11-05T06:06:59.654Z,58.87
2018-11-05T06:09:30.057Z,58.17
2018-11-05T06:12:00.407Z,56.73
2018-11-05T06:14:30.624Z,58.23
2018-11-05T06:17:00.819Z,54.27
2018-11-05T06:19:31.111Z,58.33
2018-11-05T06:22:02.107Z,51.27
2018-11-05T06:24:32.306Z,49.97
2018-11-05T06:27:02.789Z,51.57
2018-11-05T06:29:33.074Z,48.50
2018-11-05T06:32:03.376Z,47.67
2018-11-05T06:34:33.668Z,49.13
2018-11-05T06:37:04.126Z,48.57
2018-11-05T06:39:34.429Z,55.50
2018-11-05T06:42:05.254Z,51.33
2018-11-05T06:44:35.671Z,48.53
2018-11-05T06:47:06.015Z,48.90
2018-11-05T06:49:36.468Z,45.73
2018-11-05T06:52:06.889Z,49.10
2018-11-05T06:54:37.372Z,44.63
2018-11-05T06:57:08.185Z,40.87
2018-11-05T06:59:38.506Z,40.43
2018-11-05T07:02:09.113Z,40.23
2018-11-05T07:04:39.378Z,39.10
2018-11-05T07:07:09.843Z,35.97
2018-11-05T07:09:40.214Z,36.37
2018-11-05T07:12:10.540Z,37.87
2018-11-05T07:14:40.833Z,34.77
2018-11-05T07:17:11.153Z,31.33
2018-11-05T07:19:41.443Z,32.30
2018-11-05T07:22:11.901Z,29.77
2018-11-05T07:24:42.381Z,27.83
2018-11-05T07:27:12.733Z,46.47
2018-11-05T07:29:42.961Z,60.10
2018-11-05T07:32:13.401Z,34.80
2018-11-05T07:34:44.467Z,33.17
2018-11-05T07:37:14.887Z,27.60
2018-11-05T07:39:45.117Z,24.60
2018-11-05T07:42:15.557Z,26.60
2018-11-05T07:44:45.791Z,24.10
2018-11-05T07:47:16.123Z,25.17
2018-11-05T07:49:46.475Z,25.43
2018-11-05T07:52:16.797Z,25.73
2018-11-05T07:54:47.075Z,30.13
2018-11-05T07:57:17.452Z,26.67
2018-11-05T07:59:47.887Z,20.90
2018-11-05T08:02:18.319Z,20.17
2018-11-05T08:04:48.564Z,21.00
2018-11-05T08:07:19.021Z,18.97
2018-11-05T08:09:49.417Z,21.67
2018-11-05T08:12:19.724Z,21.73
2018-11-05T08:14:50.092Z,17.60
2018-11-05T08:17:20.507Z,19.73
2018-11-05T08:19:50.849Z,17.20
2018-11-05T08:22:21.203Z,22.73
2018-11-05T08:24:51.599Z,15.00
2018-11-05T08:27:22.015Z,17.07
2018-11-05T08:29:52.424Z,20.40
2018-11-05T08:32:24.185Z,16.97
2018-11-05T08:34:54.441Z,15.30
2018-11-05T08:37:24.825Z,16.73
2018-11-05T08:39:55.152Z,16.80
2018-11-05T08:42:25.497Z,12.87
2018-11-05T08:44:55.788Z,13.37
2018-11-05T08:47:26.307Z,13.57
2018-11-05T08:49:56.583Z,14.07
2018-11-05T08:52:26.980Z,13.17
2018-11-05T08:54:57.931Z,15.23
2018-11-05T08:57:29.020Z,13.33
2018-11-05T08:59:59.808Z,10.40
2018-11-05T09:02:30.529Z,13.03
2018-11-05T09:05:01.472Z,11.60
2018-11-05T09:07:32.140Z,10.83
2018-11-05T09:10:03.190Z,10.93
2018-11-05T09:12:34.224Z,10.33
2018-11-05T09:15:05.191Z,10.90
2018-11-05T09:17:36.079Z,11.53
2018-11-05T09:20:08.417Z,10.83
2018-11-05T09:22:39.446Z,11.83
2018-11-05T09:25:11.796Z,12.13
2018-11-05T09:27:42.780Z,11.23
2018-11-05T09:30:17.103Z,11.97
2018-11-05T09:32:48.275Z,9.80
2018-11-05T09:35:18.902Z,9.93
2018-11-05T09:37:50.025Z,8.40
2018-11-05T09:40:22.250Z,10.37
2018-11-05T09:42:53.089Z,12.20
2018-11-05T09:45:27.686Z,12.50
2018-11-05T09:47:58.481Z,12.53
2018-11-05T09:50:29.447Z,12.57
2018-11-05T09:53:00.172Z,8.63
2018-11-05T09:55:31.022Z,10.43
2018-11-05T09:58:01.691Z,10.80
2018-11-05T10:00:32.266Z,9.87
2018-11-05T10:03:07.339Z,10.87
2018-11-05T10:05:38.082Z,10.93
2018-11-05T10:08:08.718Z,8.17
2018-11-05T10:10:39.593Z,11.07
2018-11-05T10:13:10.142Z,8.43
2018-11-05T10:15:40.763Z,12.13
2018-11-05T10:18:11.500Z,9.27
2018-11-05T10:20:42.152Z,11.20
2018-11-05T10:23:13.418Z,8.23
2018-11-05T10:25:44.256Z,9.13
2018-11-05T10:28:15.073Z,9.53
2018-11-05T10:30:45.902Z,9.83
2018-11-05T10:33:16.459Z,10.20
2018-11-05T10:35:52.628Z,13.33
2018-11-05T10:38:23.323Z,8.37
2018-11-05T10:40:53.929Z,9.47
2018-11-05T10:43:24.172Z,8.93
2018-11-05T10:45:54.442Z,8.43
2018-11-05T10:48:24.941Z,7.73
2018-11-05T10:50:55.285Z,9.80
2018-11-05T10:53:25.533Z,10.37
2018-11-05T10:55:55.787Z,8.83
2018-11-05T10:58:26.080Z,11.50
2018-11-05T11:01:01.703Z,11.77
2018-11-05T11:03:36.292Z,10.50
2018-11-05T11:06:08.008Z,8.97
2018-11-05T11:08:38.234Z,9.73
2018-11-05T11:11:08.589Z,11.17
2018-11-05T11:13:38.946Z,12.47
2018-11-05T11:16:09.379Z,10.47
2018-11-05T11:18:39.691Z,8.43
2018-11-05T11:21:09.997Z,7.67
2018-11-05T11:23:40.224Z,11.17
2018-11-05T11:26:10.461Z,8.27
2018-11-05T11:28:40.793Z,8.97
2018-11-05T11:31:10.989Z,8.50
2018-11-05T11:33:41.355Z,10.77
2018-11-05T11:36:11.639Z,7.57
2018-11-05T11:38:41.919Z,8.27
2018-11-05T11:41:12.219Z,11.77
2018-11-05T11:43:42.681Z,7.73
2018-11-05T11:46:13.030Z,7.23
2018-11-05T11:48:43.376Z,11.17
2018-11-05T11:51:13.673Z,11.33
2018-11-05T11:53:43.999Z,10.93
2018-11-05T11:56:14.321Z,7.57
2018-11-05T11:58:44.628Z,7.03
2018-11-05T12:01:14.798Z,11.90
2018-11-05T12:03:45.123Z,7.63
2018-11-05T12:06:15.411Z,12.13
2018-11-05T12:08:45.634Z,9.83
2018-11-05T12:11:15.878Z,9.37
2018-11-05T12:14:24.941Z,8.17
2018-11-05T12:16:55.179Z,7.97
2018-11-05T12:19:25.498Z,6.70
2018-11-05T12:21:55.876Z,6.62
2018-11-05T12:24:26.285Z,8.40
2018-11-05T12:26:56.567Z,6.50
2018-11-05T12:29:26.884Z,8.03
2018-11-05T12:31:57.277Z,6.47
2018-11-05T12:34:27.681Z,6.75
2018-11-05T12:36:58.280Z,15.35
2018-11-05T12:39:28.578Z,6.47
2018-11-05T12:41:58.931Z,11.55
2018-11-05T12:44:29.323Z,10.98
2018-11-05T12:46:59.735Z,6.83
2018-11-05T12:49:30.099Z,8.95
2018-11-05T12:52:00.477Z,6.75
2018-11-05T12:54:30.747Z,6.12
2018-11-05T12:57:01.233Z,10.20
2018-11-05T12:59:31.638Z,7.08
2018-11-05T13:02:01.896Z,10.20
2018-11-05T13:04:32.259Z,6.53
2018-11-05T13:07:02.700Z,8.00
2018-11-05T13:09:33.059Z,6.60
2018-11-05T13:12:03.431Z,6.80
2018-11-05T13:14:33.864Z,8.20
2018-11-05T13:17:04.533Z,17.90
2018-11-05T13:19:34.874Z,10.82
2018-11-05T13:22:05.671Z,10.03
2018-11-05T13:24:36.142Z,15.43
2018-11-05T13:27:06.546Z,7.75
2018-11-05T13:29:36.904Z,9.65
2018-11-05T13:32:07.514Z,18.00
2018-11-05T13:34:37.897Z,7.83
2018-11-05T13:37:08.448Z,12.28
2018-11-05T13:39:38.606Z,9.25
2018-11-05T13:42:09.094Z,9.25
2018-11-05T13:44:39.447Z,6.55
2018-11-05T13:47:10.487Z,6.20
2018-11-05T13:49:40.316Z,7.70
2018-11-05T13:52:13.364Z,6.90
2018-11-05T13:54:43.995Z,7.00
2018-11-05T13:57:14.195Z,7.85
2018-11-05T13:59:44.783Z,8.55
2018-11-05T14:02:15.210Z,10.65
2018-11-05T14:04:45.529Z,7.45
2018-11-05T14:07:16.010Z,7.60
2018-11-05T14:09:46.441Z,5.67
2018-11-05T14:12:16.812Z,6.43
2018-11-05T14:14:47.266Z,7.40
2018-11-05T14:17:17.622Z,8.70
2018-11-05T14:19:47.991Z,10.67
2018-11-05T14:22:18.524Z,8.90
2018-11-05T14:24:48.836Z,6.73
2018-11-05T14:27:19.175Z,7.47
2018-11-05T14:29:50.153Z,6.90
2018-11-05T14:32:20.211Z,7.23
2018-11-05T14:34:50.526Z,8.13
2018-11-05T14:37:21.398Z,10.13
2018-11-05T14:39:51.795Z,9.37
2018-11-05T14:42:22.385Z,9.10
2018-11-05T14:44:52.663Z,7.73
2018-11-05T14:47:22.982Z,9.00
2018-11-05T14:49:53.405Z,8.33
2018-11-05T14:52:23.956Z,7.50
2018-11-05T14:54:59.716Z,7.70
2018-11-05T14:57:30.866Z,5.53
2018-11-05T15:00:01.308Z,9.60
2018-11-05T15:02:39.233Z,10.37
2018-11-05T15:05:10.828Z,7.17
2018-11-05T15:07:42.126Z,7.17
2018-11-05T15:10:14.266Z,11.53
2018-11-05T15:12:44.766Z,8.23
2018-11-05T15:15:16.438Z,7.93
2018-11-05T15:17:48.078Z,9.43
2018-11-05T15:20:19.775Z,10.30
2018-11-05T15:22:50.068Z,7.60
2018-11-05T15:25:21.149Z,8.37
2018-11-05T15:27:51.605Z,7.90
2018-11-05T15:30:23.072Z,10.00
2018-11-05T15:32:53.437Z,9.87
2018-11-05T15:35:23.717Z,11.00
2018-11-05T15:37:54.026Z,8.70
2018-11-05T15:40:24.404Z,8.17
2018-11-05T15:42:54.797Z,10.53
2018-11-05T15:45:25.156Z,8.93
2018-11-05T15:47:55.513Z,13.70
2018-11-05T15:50:25.909Z,10.93
2018-11-05T15:52:58.955Z,8.27
2018-11-05T15:55:29.145Z,10.57
2018-11-05T15:57:59.420Z,8.30
2018-11-05T16:00:29.738Z,9.83
2018-11-05T16:03:01.320Z,12.07
2018-11-05T16:05:31.672Z,11.17
2018-11-05T16:08:01.992Z,9.93
2018-11-05T16:10:32.259Z,8.13
2018-11-05T16:13:02.594Z,12.13
2018-11-05T16:15:32.891Z,9.07
2018-11-05T16:18:03.288Z,10.93
2018-11-05T16:20:33.573Z,9.77
2018-11-05T16:23:03.903Z,12.17
2018-11-05T16:25:34.270Z,10.63
2018-11-05T16:28:04.891Z,10.43
2018-11-05T16:30:35.357Z,9.27
2018-11-05T16:33:05.673Z,10.33
2018-11-05T16:35:44.549Z,13.83
2018-11-05T16:38:17.779Z,11.33
2018-11-05T16:40:48.496Z,12.93
2018-11-05T16:43:20.595Z,10.27
2018-11-05T16:45:51.020Z,12.67
2018-11-05T16:48:21.199Z,13.00
2018-11-05T16:50:51.595Z,13.43
2018-11-05T16:53:21.892Z,12.43
2018-11-05T16:55:52.227Z,14.30
2018-11-05T16:58:22.793Z,10.07
2018-11-05T17:00:53.227Z,12.37
2018-11-05T17:03:23.421Z,13.73
2018-11-05T17:05:53.694Z,17.33
2018-11-05T17:08:24.013Z,14.27
2018-11-05T17:10:54.329Z,11.77
2018-11-05T17:13:26.020Z,14.63
2018-11-05T17:15:56.176Z,17.00
2018-11-05T17:18:26.533Z,14.20
2018-11-05T17:20:56.879Z,19.47
2018-11-05T17:23:27.234Z,15.13
2018-11-05T17:25:57.702Z,19.77
2018-11-05T17:28:28.029Z,17.10
2018-11-05T17:30:58.476Z,16.27
2018-11-05T17:33:28.876Z,20.90
2018-11-05T17:36:00.583Z,17.10
2018-11-05T17:38:31.015Z,13.23
2018-11-05T17:41:01.341Z,12.60
2018-11-05T17:43:31.644Z,14.83
2018-11-05T17:46:02.038Z,13.77
2018-11-05T17:48:32.688Z,15.67
2018-11-05T17:51:03.064Z,13.50
2018-11-05T17:53:36.388Z,15.03
2018-11-05T17:56:07.098Z,16.67
2018-11-05T17:58:37.339Z,13.10
2018-11-05T18:01:07.930Z,15.70
2018-11-05T18:03:38.251Z,15.33
2018-11-05T18:06:10.414Z,15.40
2018-11-05T18:08:40.711Z,15.50
2018-11-05T18:11:11.049Z,18.83
2018-11-05T18:13:41.355Z,17.73
2018-11-05T18:16:11.987Z,18.30
2018-11-05T18:18:45.308Z,23.23
2018-11-05T18:21:15.693Z,18.47
2018-11-05T18:23:45.934Z,19.27
2018-11-05T18:26:16.651Z,15.23
2018-11-05T18:28:46.942Z,18.13
2018-11-05T18:31:17.452Z,22.13
2018-11-05T18:33:47.800Z,26.23
2018-11-05T18:36:18.236Z,25.13
2018-11-05T18:38:48.486Z,22.77
2018-11-05T18:41:18.992Z,22.23
2018-11-05T18:43:49.330Z,21.00
2018-11-05T18:46:19.762Z,25.63
2018-11-05T18:48:49.995Z,24.87
2018-11-05T18:51:20.405Z,19.77
2018-11-05T18:53:50.739Z,17.87
2018-11-05T18:56:21.329Z,20.63
2018-11-05T18:58:51.630Z,23.53
2018-11-05T19:01:22.018Z,22.17
2018-11-05T19:03:58.855Z,23.30
2018-11-05T19:10:01.942Z,21.30
2018-11-05T19:12:32.308Z,26.83
2018-11-05T19:15:02.723Z,23.53
2018-11-05T19:17:33.076Z,26.57
2018-11-05T19:20:03.513Z,28.30
2018-11-05T19:22:33.803Z,28.10
2018-11-05T19:25:04.169Z,24.17
2018-11-05T19:27:34.543Z,25.57
2018-11-05T19:30:06.572Z,24.00
2018-11-05T19:32:43.647Z,21.10
2018-11-05T19:35:14.277Z,20.03
2018-11-05T19:37:44.482Z,20.43
2018-11-05T19:43:08.751Z,23.53
2018-11-05T19:45:38.956Z,22.17
2018-11-05T19:48:09.325Z,23.13
2018-11-05T19:50:39.857Z,23.73
2018-11-05T19:53:10.144Z,20.50
2018-11-05T19:55:40.364Z,20.67
2018-11-05T19:58:10.747Z,25.33
2018-11-05T20:00:40.997Z,21.00
2018-11-05T20:03:11.345Z,21.27
2018-11-05T20:05:41.659Z,19.70
2018-11-05T20:08:12.132Z,21.87
2018-11-05T20:10:42.436Z,25.13
2018-11-05T20:13:13.421Z,21.13
2018-11-05T20:15:43.756Z,22.37
2018-11-05T20:18:14.154Z,27.30
2018-11-05T20:20:44.521Z,29.23
2018-11-05T20:23:14.823Z,20.40
2018-11-05T20:25:45.140Z,20.47
2018-11-05T20:28:15.458Z,23.63
2018-11-05T20:30:45.803Z,23.13
2018-11-05T20:33:16.333Z,24.63
2018-11-05T20:35:46.411Z,24.13
2018-11-05T20:38:16.901Z,25.57
2018-11-05T20:40:47.067Z,24.63
2018-11-05T20:43:17.272Z,22.50
2018-11-05T20:45:48.215Z,26.50
2018-11-05T20:48:18.499Z,26.20
2018-11-05T20:50:48.895Z,25.50
2018-11-05T20:53:19.273Z,24.43
2018-11-05T20:55:49.450Z,21.73
2018-11-05T20:58:19.787Z,19.97
2018-11-05T21:00:50.063Z,17.83
2018-11-05T21:03:20.410Z,21.00
2018-11-05T21:05:50.656Z,24.07
2018-11-05T21:08:20.964Z,22.03
2018-11-05T21:10:51.292Z,18.27
2018-11-05T21:13:21.458Z,20.57
2018-11-05T21:15:51.739Z,22.80
2018-11-05T21:18:22.909Z,23.47
2018-11-05T21:20:56.262Z,25.87
2018-11-05T21:23:26.460Z,24.40
2018-11-05T21:25:56.845Z,24.73
2018-11-05T21:28:27.240Z,22.60
2018-11-05T21:30:57.488Z,23.37
2018-11-05T21:33:27.765Z,26.60
2018-11-05T21:35:58.013Z,21.53
2018-11-05T21:38:28.260Z,25.50
2018-11-05T21:40:58.565Z,23.73
2018-11-05T21:43:28.862Z,23.43
2018-11-05T21:45:59.138Z,25.67
2018-11-05T21:48:29.451Z,24.37
2018-11-05T21:50:59.708Z,24.37
2018-11-05T21:53:29.923Z,21.93
2018-11-05T21:56:00.220Z,28.53
2018-11-05T21:58:30.544Z,23.57
2018-11-05T22:01:00.808Z,23.67
2018-11-05T22:03:31.065Z,25.90
2018-11-05T22:06:07.872Z,23.93
2018-11-05T22:08:38.074Z,27.27
2018-11-05T22:11:14.729Z,25.80
2018-11-05T22:13:44.884Z,28.70
2018-11-05T22:16:15.144Z,26.97
2018-11-05T22:18:45.394Z,29.20
2018-11-05T22:21:15.643Z,29.73
2018-11-05T22:23:45.892Z,25.37
2018-11-05T22:26:16.193Z,31.67
2018-11-05T22:28:46.488Z,28.70
2018-11-05T22:31:16.809Z,32.23
2018-11-05T22:33:46.988Z,35.87
2018-11-05T22:36:17.194Z,30.67
2018-11-05T22:38:47.437Z,36.00
2018-11-05T22:41:17.740Z,28.97
2018-11-05T22:43:48.002Z,30.60
2018-11-05T22:46:18.274Z,29.70
2018-11-05T22:48:48.600Z,26.97
2018-11-05T22:51:18.881Z,26.23
2018-11-05T22:53:49.066Z,23.77
2018-11-05T22:56:19.381Z,24.50
2018-11-05T22:58:49.648Z,31.80
2018-11-05T23:01:25.221Z,25.40
2018-11-05T23:03:55.448Z,26.90
2018-11-05T23:06:25.763Z,28.23
2018-11-05T23:08:56.096Z,25.00
2018-11-05T23:11:26.407Z,29.37
2018-11-05T23:13:56.669Z,24.53
2018-11-05T23:16:26.871Z,30.50
2018-11-05T23:18:57.211Z,27.33
2018-11-05T23:21:27.421Z,30.57
2018-11-05T23:23:57.589Z,26.70
2018-11-05T23:26:27.909Z,24.47
2018-11-05T23:28:58.277Z,25.53
2018-11-05T23:31:28.615Z,31.57
2018-11-05T23:33:58.993Z,25.53
2018-11-05T23:36:29.261Z,29.00
2018-11-05T23:38:59.588Z,29.67
2018-11-05T23:41:29.761Z,35.20
2018-11-05T23:43:59.983Z,30.57
2018-11-05T23:46:30.397Z,30.47
2018-11-05T23:49:00.665Z,24.67
2018-11-05T23:51:30.962Z,25.80
2018-11-05T23:54:01.461Z,27.97
2018-11-05T23:56:31.677Z,27.63
2018-11-05T23:59:01.912Z,29.47
